Time;durP1;ratioP1;P1;durP2;ratioP2;P2;SDS_P1;SDS_P2;PMS_P1;PMS_P2;Temp;Humidity;BMP_temperature;BMP_pressure;BME280_temperature;BME280_humidity;BME280_pressure;Samples;Min_cycle;Max_cycle;Signal;HPM_P1;HPM_P2
2023/04/29 03:01:27;;;;;;;;;;;19.20;51.90;;;;;;5505932;22;46615;-59
2023/04/29 03:03:54;;;;;;;;;;;19.20;52.00;;;;;;4932067;28;44986;-57
2023/04/29 03:06:19;;;;;;;;;;;19.20;51.90;;;;;;4923242;28;44950;-59
2023/04/29 03:08:45;;;;;;;;;;;19.20;52.00;;;;;;4973054;28;45871;-58
2023/04/29 03:11:10;;;;;;;;;;;19.10;51.90;;;;;;4958163;28;45124;-59
2023/04/29 03:13:37;;;;;;;;;;;19.20;51.90;;;;;;4909276;28;44873;-60
2023/04/29 03:16:03;;;;;;;;;;;19.20;52.00;;;;;;4944131;28;45230;-58
2023/04/29 03:18:28;;;;;;;;;;;19.20;52.00;;;;;;4934186;28;46943;-59
2023/04/29 03:20:54;;;;;;;;;;;19.20;52.00;;;;;;4937746;28;45383;-59
2023/04/29 03:23:19;;;;;;;;;;;19.20;52.00;;;;;;4943081;28;44947;-60
2023/04/29 03:25:45;;;;;;;;;;;19.10;52.00;;;;;;4952304;28;44996;-59
2023/04/29 03:28:10;;;;;;;;;;;19.20;52.10;;;;;;4951102;28;45505;-59
2023/04/29 03:30:36;;;;;;;;;;;19.10;52.00;;;;;;4952216;28;45304;-60
2023/04/29 03:33:01;;;;;;;;;;;19.20;52.10;;;;;;4950212;28;45028;-59
2023/04/29 03:35:27;;;;;;;;;;;19.10;52.00;;;;;;4932170;28;45365;-59
2023/04/29 03:37:52;;;;;;;;;;;19.10;52.00;;;;;;4938415;28;45387;-59
2023/04/29 03:40:18;;;;;;;;;;;19.20;52.00;;;;;;4937098;28;44878;-61
2023/04/29 03:42:43;;;;;;;;;;;19.10;52.00;;;;;;4955238;28;45981;-60
2023/04/29 03:45:11;;;;;;;;;;;19.10;52.00;;;;;;4946070;28;45406;-64
2023/04/29 03:47:37;;;;;;;;;;;19.20;52.00;;;;;;4939892;28;46897;-58
2023/04/29 03:50:03;;;;;;;;;;;19.10;52.00;;;;;;4953477;28;45269;-61
2023/04/29 03:52:28;;;;;;;;;;;19.10;52.00;;;;;;4936461;28;45443;-59
2023/04/29 03:54:54;;;;;;;;;;;19.10;52.00;;;;;;4954930;28;45001;-61
2023/04/29 03:57:19;;;;;;;;;;;19.10;52.00;;;;;;4949983;28;45300;-59
2023/04/29 03:59:49;;;;;;;;;;;19.10;52.00;;;;;;4950930;28;44668;-59
2023/04/29 04:02:15;;;;;;;;;;;19.10;52.00;;;;;;4917639;28;45075;-59
2023/04/29 04:04:41;;;;;;;;;;;19.10;52.10;;;;;;4953885;28;45748;-58
2023/04/29 04:07:06;;;;;;;;;;;19.10;52.00;;;;;;4954566;28;45987;-60
2023/04/29 04:09:32;;;;;;;;;;;19.10;52.10;;;;;;4962074;28;44913;-58
2023/04/29 04:11:57;;;;;;;;;;;19.00;52.00;;;;;;4960091;28;44855;-59
2023/04/29 04:14:23;;;;;;;;;;;19.10;52.10;;;;;;4932550;28;45000;-57
2023/04/29 04:16:49;;;;;;;;;;;19.10;52.10;;;;;;4930774;28;46343;-58
2023/04/29 04:19:15;;;;;;;;;;;19.10;52.20;;;;;;4942842;28;45153;-60
2023/04/29 04:21:41;;;;;;;;;;;19.10;52.10;;;;;;4952238;28;45596;-57
2023/04/29 04:24:06;;;;;;;;;;;19.10;52.10;;;;;;4947028;28;45312;-55
2023/04/29 04:26:32;;;;;;;;;;;19.10;52.10;;;;;;4937080;28;45009;-59
2023/04/29 04:28:57;;;;;;;;;;;19.10;52.10;;;;;;4963626;28;45032;-55
2023/04/29 04:31:23;;;;;;;;;;;19.10;52.10;;;;;;4952209;28;46372;-56
2023/04/29 04:33:49;;;;;;;;;;;19.10;52.10;;;;;;4949510;28;45188;-57
2023/04/29 04:36:14;;;;;;;;;;;19.10;52.10;;;;;;4938452;28;47034;-65
2023/04/29 04:38:40;;;;;;;;;;;19.00;52.00;;;;;;4962753;28;44937;-57
2023/04/29 04:41:06;;;;;;;;;;;19.00;52.10;;;;;;4957485;28;45224;-54
2023/04/29 04:43:32;;;;;;;;;;;19.00;52.10;;;;;;4964070;28;45304;-58
2023/04/29 04:45:57;;;;;;;;;;;19.00;52.10;;;;;;4954892;28;45860;-60
2023/04/29 04:48:23;;;;;;;;;;;19.10;52.10;;;;;;4960881;28;44878;-58
2023/04/29 04:50:49;;;;;;;;;;;19.00;52.00;;;;;;4955790;28;45149;-59
2023/04/29 04:53:14;;;;;;;;;;;19.00;52.10;;;;;;4937914;28;45326;-60
2023/04/29 04:55:40;;;;;;;;;;;19.10;52.10;;;;;;4956776;28;46472;-59
2023/04/29 04:58:05;;;;;;;;;;;19.10;52.10;;;;;;4959540;28;44825;-58
2023/04/29 05:00:31;;;;;;;;;;;19.10;52.10;;;;;;4953510;28;44712;-56
2023/04/29 05:02:56;;;;;;;;;;;19.00;52.00;;;;;;4942828;28;44958;-58
2023/04/29 05:05:22;;;;;;;;;;;19.00;52.10;;;;;;4941051;28;46256;-58
2023/04/29 05:07:47;;;;;;;;;;;19.00;52.10;;;;;;4954257;28;44868;-60
2023/04/29 05:10:13;;;;;;;;;;;19.00;52.00;;;;;;4953835;28;45121;-58
2023/04/29 05:12:38;;;;;;;;;;;19.00;52.00;;;;;;4960578;28;44733;-60
2023/04/29 05:15:04;;;;;;;;;;;19.00;52.10;;;;;;4958580;28;45402;-60
2023/04/29 05:17:29;;;;;;;;;;;19.00;52.00;;;;;;4943945;28;45314;-58
2023/04/29 05:19:55;;;;;;;;;;;19.00;52.00;;;;;;4959372;28;44992;-60
2023/04/29 05:22:20;;;;;;;;;;;19.00;52.00;;;;;;4958848;28;45533;-61
2023/04/29 05:24:47;;;;;;;;;;;19.00;52.00;;;;;;4958465;28;45415;-56
2023/04/29 05:27:13;;;;;;;;;;;19.10;52.10;;;;;;4953917;28;45304;-59
2023/04/29 05:29:38;;;;;;;;;;;19.00;52.00;;;;;;4916257;28;44804;-59
2023/04/29 05:32:04;;;;;;;;;;;19.00;52.50;;;;;;4952201;28;45213;-59
2023/04/29 05:34:30;;;;;;;;;;;19.00;51.80;;;;;;4941268;28;45310;-60
2023/04/29 05:36:56;;;;;;;;;;;19.00;51.90;;;;;;4955528;28;45294;-60
2023/04/29 05:39:21;;;;;;;;;;;19.00;51.90;;;;;;4959235;28;45110;-61
2023/04/29 05:41:47;;;;;;;;;;;19.00;52.00;;;;;;4937798;28;44945;-57
2023/04/29 05:44:13;;;;;;;;;;;19.00;52.00;;;;;;4938856;28;45503;-60
2023/04/29 05:46:38;;;;;;;;;;;19.00;52.00;;;;;;4949902;28;45305;-56
2023/04/29 05:49:04;;;;;;;;;;;19.00;52.00;;;;;;4958148;28;45060;-59
2023/04/29 05:51:30;;;;;;;;;;;19.00;52.00;;;;;;4957400;28;45376;-58
2023/04/29 05:53:58;;;;;;;;;;;19.00;52.00;;;;;;4957505;28;45289;-62
2023/04/29 05:56:23;;;;;;;;;;;19.00;52.60;;;;;;4949408;28;44982;-58
2023/04/29 05:58:49;;;;;;;;;;;19.00;52.00;;;;;;4963793;28;45093;-56
2023/04/29 06:01:16;;;;;;;;;;;19.00;52.00;;;;;;4950999;28;45307;-59
2023/04/29 06:03:41;;;;;;;;;;;19.00;52.10;;;;;;4940628;28;46349;-58
2023/04/29 06:06:07;;;;;;;;;;;18.90;52.60;;;;;;4958569;28;45222;-59
2023/04/29 06:08:32;;;;;;;;;;;18.90;52.00;;;;;;4938919;28;45730;-58
2023/04/29 06:10:58;;;;;;;;;;;18.90;52.00;;;;;;4948807;28;45255;-61
2023/04/29 06:13:23;;;;;;;;;;;19.00;52.00;;;;;;4941322;28;45308;-58
2023/04/29 06:15:49;;;;;;;;;;;19.00;52.00;;;;;;4956171;28;45260;-59
2023/04/29 06:18:14;;;;;;;;;;;19.00;52.00;;;;;;4956709;28;45003;-60
2023/04/29 06:20:40;;;;;;;;;;;19.00;52.00;;;;;;4954587;28;45554;-59
2023/04/29 06:23:06;;;;;;;;;;;18.90;52.00;;;;;;4961268;28;46889;-58
2023/04/29 06:25:31;;;;;;;;;;;19.00;52.10;;;;;;4955674;28;44945;-58
2023/04/29 06:27:57;;;;;;;;;;;19.00;52.10;;;;;;4955821;28;45200;-56
2023/04/29 06:30:22;;;;;;;;;;;19.00;52.00;;;;;;4954628;28;46242;-59
2023/04/29 06:32:48;;;;;;;;;;;19.00;52.00;;;;;;4957351;28;45278;-60
2023/04/29 06:35:13;;;;;;;;;;;19.00;52.00;;;;;;4941740;28;45232;-57
2023/04/29 06:37:39;;;;;;;;;;;19.00;52.00;;;;;;4943986;28;45381;-59
2023/04/29 06:40:05;;;;;;;;;;;19.00;52.00;;;;;;4957110;28;45282;-61
2023/04/29 06:42:30;;;;;;;;;;;19.00;52.00;;;;;;4940610;28;45214;-59
2023/04/29 06:44:56;;;;;;;;;;;19.00;52.00;;;;;;4963438;28;44879;-59
2023/04/29 06:47:22;;;;;;;;;;;19.00;52.00;;;;;;4952229;28;45056;-57
2023/04/29 06:49:47;;;;;;;;;;;18.90;52.00;;;;;;4958155;28;44892;-57
2023/04/29 06:52:13;;;;;;;;;;;18.90;52.00;;;;;;4932917;28;45469;-58
2023/04/29 06:54:39;;;;;;;;;;;18.90;52.00;;;;;;4963449;28;45226;-60
2023/04/29 06:57:05;;;;;;;;;;;19.00;52.00;;;;;;4958059;28;46403;-59
2023/04/29 06:59:31;;;;;;;;;;;19.00;52.00;;;;;;4957602;28;44893;-57
2023/04/29 07:01:57;;;;;;;;;;;18.90;52.00;;;;;;4914140;28;1073410;-60
2023/04/29 07:04:22;;;;;;;;;;;18.90;52.00;;;;;;4957228;28;45203;-59
2023/04/29 07:06:48;;;;;;;;;;;19.00;52.10;;;;;;4953775;28;44903;-58
2023/04/29 07:09:13;;;;;;;;;;;18.90;52.00;;;;;;4939490;28;45273;-57
2023/04/29 07:11:39;;;;;;;;;;;18.90;52.00;;;;;;4955776;28;45641;-59
2023/04/29 07:14:06;;;;;;;;;;;18.90;52.30;;;;;;4947304;28;45227;-57
2023/04/29 07:16:31;;;;;;;;;;;19.00;52.00;;;;;;4949647;28;44899;-58
2023/04/29 07:18:57;;;;;;;;;;;18.90;52.00;;;;;;4960846;28;45018;-58
2023/04/29 07:21:22;;;;;;;;;;;18.90;52.00;;;;;;4946992;28;45391;-59
2023/04/29 07:23:48;;;;;;;;;;;18.90;52.00;;;;;;4957587;28;45002;-58
2023/04/29 07:26:17;;;;;;;;;;;18.90;52.00;;;;;;4956490;28;45046;-59
2023/04/29 07:28:42;;;;;;;;;;;19.00;52.00;;;;;;4957702;28;44693;-56
2023/04/29 07:31:08;;;;;;;;;;;18.90;52.00;;;;;;4926524;28;45532;-60
2023/04/29 07:33:34;;;;;;;;;;;19.00;52.00;;;;;;4949325;28;45619;-56
2023/04/29 07:35:59;;;;;;;;;;;18.90;52.00;;;;;;4938730;28;45553;-56
2023/04/29 07:38:25;;;;;;;;;;;19.00;52.00;;;;;;4946268;28;45257;-59
2023/04/29 07:40:50;;;;;;;;;;;18.90;52.00;;;;;;4958854;28;45290;-59
2023/04/29 07:43:16;;;;;;;;;;;18.90;52.00;;;;;;4954172;28;45440;-60
2023/04/29 07:45:41;;;;;;;;;;;18.90;52.00;;;;;;4951431;28;45344;-59
2023/04/29 07:48:07;;;;;;;;;;;18.90;52.00;;;;;;4961302;28;45036;-58
2023/04/29 07:50:35;;;;;;;;;;;19.00;52.00;;;;;;4956812;28;45561;-59
2023/04/29 07:53:01;;;;;;;;;;;18.90;51.90;;;;;;4945314;28;44895;-61
2023/04/29 07:55:28;;;;;;;;;;;19.00;51.90;;;;;;4952118;28;44851;-60
2023/04/29 07:57:54;;;;;;;;;;;19.00;51.90;;;;;;4940153;28;45279;-58
2023/04/29 08:00:20;;;;;;;;;;;19.00;51.90;;;;;;4951013;28;46327;-57
2023/04/29 08:02:46;;;;;;;;;;;19.00;51.90;;;;;;4955817;28;44966;-59
2023/04/29 08:05:11;;;;;;;;;;;19.00;51.90;;;;;;4937366;28;45008;-57
2023/04/29 08:07:37;;;;;;;;;;;19.00;51.90;;;;;;4956113;28;44805;-60
2023/04/29 08:10:05;;;;;;;;;;;19.00;51.90;;;;;;4942623;28;47709;-61
2023/04/29 08:12:31;;;;;;;;;;;19.00;51.90;;;;;;4941267;28;45235;-59
2023/04/29 08:14:56;;;;;;;;;;;19.00;51.90;;;;;;4960650;28;45148;-59
2023/04/29 08:17:22;;;;;;;;;;;19.00;51.90;;;;;;4953756;28;45742;-59
2023/04/29 08:19:47;;;;;;;;;;;19.00;51.90;;;;;;4949980;28;45064;-60
2023/04/29 08:22:13;;;;;;;;;;;19.00;51.90;;;;;;4958510;28;45119;-58
2023/04/29 08:24:40;;;;;;;;;;;19.00;51.80;;;;;;4961596;28;45077;-59
2023/04/29 08:27:06;;;;;;;;;;;19.10;51.90;;;;;;4955661;28;45189;-57
2023/04/29 08:29:31;;;;;;;;;;;19.00;51.80;;;;;;4945663;28;47336;-58
2023/04/29 08:31:57;;;;;;;;;;;19.00;51.80;;;;;;4950405;28;45202;-59
2023/04/29 08:34:22;;;;;;;;;;;19.00;51.80;;;;;;4958798;28;45067;-59
2023/04/29 08:36:48;;;;;;;;;;;19.10;51.90;;;;;;4956145;28;44923;-59
2023/04/29 08:39:13;;;;;;;;;;;19.00;51.80;;;;;;4943434;28;45384;-57
2023/04/29 08:41:39;;;;;;;;;;;19.00;52.40;;;;;;4955080;28;45312;-59
2023/04/29 08:44:05;;;;;;;;;;;19.00;51.80;;;;;;4967116;28;44670;-59
2023/04/29 08:46:30;;;;;;;;;;;19.00;51.80;;;;;;4947600;28;45260;-58
2023/04/29 08:48:57;;;;;;;;;;;19.10;51.90;;;;;;4956987;28;45362;-59
2023/04/29 08:51:22;;;;;;;;;;;19.00;51.80;;;;;;4954439;28;45169;-59
2023/04/29 08:53:47;;;;;;;;;;;19.00;51.90;;;;;;4961990;28;45215;-60
2023/04/29 08:56:16;;;;;;;;;;;19.00;51.80;;;;;;4949410;28;45046;-58
2023/04/29 08:58:41;;;;;;;;;;;19.10;51.90;;;;;;4959163;28;45545;-57
2023/04/29 09:01:08;;;;;;;;;;;19.00;51.80;;;;;;4931542;28;45105;-59
2023/04/29 09:03:43;;;;;;;;;;;19.00;51.80;;;;;;4924339;28;46251;-58
2023/04/29 09:06:08;;;;;;;;;;;19.00;51.80;;;;;;4937809;28;45257;-60
2023/04/29 09:08:34;;;;;;;;;;;19.00;51.80;;;;;;4936951;28;45158;-60
2023/04/29 09:10:59;;;;;;;;;;;19.00;51.80;;;;;;4934384;28;46609;-59
2023/04/29 09:13:28;;;;;;;;;;;19.00;51.80;;;;;;4957305;28;44972;-60
2023/04/29 09:15:54;;;;;;;;;;;19.10;51.90;;;;;;4948581;28;45321;-61
2023/04/29 09:18:38;;;;;;;;;;;19.00;51.80;;;;;;4953753;28;46162;-59
2023/04/29 09:21:19;;;;;;;;;;;19.10;51.80;;;;;;4947838;28;45062;-60
2023/04/29 09:23:48;;;;;;;;;;;19.10;51.90;;;;;;4952821;28;45015;-59
2023/04/29 09:26:13;;;;;;;;;;;19.00;51.80;;;;;;4929835;28;44858;-58
2023/04/29 09:28:42;;;;;;;;;;;19.10;51.80;;;;;;4923587;28;46893;-59
2023/04/29 09:31:07;;;;;;;;;;;19.10;51.80;;;;;;4932619;28;45795;-60
2023/04/29 09:33:53;;;;;;;;;;;19.10;51.70;;;;;;4953712;28;44744;-58
2023/04/29 09:36:37;;;;;;;;;;;19.10;51.70;;;;;;4939124;28;45694;-58
2023/04/29 09:39:10;;;;;;;;;;;19.10;51.70;;;;;;4956520;28;45385;-60
2023/04/29 09:41:51;;;;;;;;;;;19.10;51.70;;;;;;4953954;28;45194;-59
2023/04/29 09:44:16;;;;;;;;;;;19.10;51.70;;;;;;4957609;28;45103;-59
2023/04/29 09:46:42;;;;;;;;;;;19.10;51.60;;;;;;4951959;28;45525;-60
2023/04/29 09:49:23;;;;;;;;;;;19.10;51.60;;;;;;4939138;28;45835;-59
2023/04/29 09:51:56;;;;;;;;;;;19.10;51.60;;;;;;4940801;28;45161;-58
2023/04/29 09:54:22;;;;;;;;;;;19.10;51.60;;;;;;4952726;28;44956;-59
2023/04/29 09:56:48;;;;;;;;;;;19.20;51.60;;;;;;4938432;28;45590;-59
2023/04/29 09:59:13;;;;;;;;;;;19.20;51.60;;;;;;4956921;28;46113;-57
2023/04/29 10:01:39;;;;;;;;;;;19.20;51.50;;;;;;4901810;28;45517;-58
2023/04/29 10:04:05;;;;;;;;;;;19.20;51.60;;;;;;4938994;28;45028;-58
2023/04/29 10:06:30;;;;;;;;;;;19.20;51.50;;;;;;4933817;28;44861;-58
2023/04/29 10:08:56;;;;;;;;;;;19.20;51.50;;;;;;4942730;28;46069;-59
2023/04/29 10:11:21;;;;;;;;;;;19.20;51.50;;;;;;4934830;28;44697;-59
2023/04/29 10:13:47;;;;;;;;;;;19.20;51.50;;;;;;4942874;28;45046;-58
2023/04/29 10:16:14;;;;;;;;;;;19.20;51.50;;;;;;4930361;28;45049;-59
2023/04/29 10:18:40;;;;;;;;;;;19.20;51.50;;;;;;4923793;28;45509;-58
2023/04/29 10:21:06;;;;;;;;;;;19.20;51.50;;;;;;4936907;28;45329;-57
2023/04/29 10:23:32;;;;;;;;;;;19.20;51.50;;;;;;4940843;28;45247;-59
2023/04/29 10:25:58;;;;;;;;;;;19.30;51.50;;;;;;4931126;28;45253;-60
2023/04/29 10:28:24;;;;;;;;;;;19.30;51.50;;;;;;4936671;28;45530;-59
2023/04/29 10:30:49;;;;;;;;;;;19.30;51.50;;;;;;4931540;28;45843;-58
2023/04/29 10:33:15;;;;;;;;;;;19.30;51.50;;;;;;4935404;28;45345;-60
2023/04/29 10:35:41;;;;;;;;;;;19.30;51.50;;;;;;4933303;28;45408;-58
2023/04/29 10:38:09;;;;;;;;;;;19.30;51.50;;;;;;4942623;28;46092;-57
2023/04/29 10:40:45;;;;;;;;;;;19.30;51.50;;;;;;4916019;28;45290;-58
2023/04/29 10:43:10;;;;;;;;;;;19.30;51.50;;;;;;4960167;28;45104;-59
2023/04/29 10:45:37;;;;;;;;;;;19.30;51.40;;;;;;4950345;28;45653;-58
2023/04/29 10:48:05;;;;;;;;;;;19.30;51.40;;;;;;4952507;28;45253;-60
2023/04/29 10:50:31;;;;;;;;;;;19.30;51.40;;;;;;4946694;28;46207;-59
2023/04/29 10:52:57;;;;;;;;;;;19.30;51.40;;;;;;4936651;28;45512;-58
2023/04/29 10:55:23;;;;;;;;;;;19.30;51.40;;;;;;4951868;28;45264;-57
2023/04/29 10:57:51;;;;;;;;;;;19.30;51.40;;;;;;4954748;28;45486;-58
2023/04/29 11:00:26;;;;;;;;;;;19.30;51.40;;;;;;4951224;28;45326;-56
2023/04/29 11:02:59;;;;;;;;;;;19.30;51.40;;;;;;4935214;28;45245;-57
2023/04/29 11:05:34;;;;;;;;;;;19.30;51.40;;;;;;4946764;28;45210;-57
2023/04/29 11:08:12;;;;;;;;;;;19.30;51.40;;;;;;4937406;28;46591;-59
2023/04/29 11:10:41;;;;;;;;;;;19.30;51.40;;;;;;4953054;28;45189;-58
2023/04/29 11:13:25;;;;;;;;;;;19.40;51.40;;;;;;4955091;28;45220;-56
2023/04/29 11:15:51;;;;;;;;;;;19.40;51.40;;;;;;4941209;28;45192;-55
2023/04/29 11:18:17;;;;;;;;;;;19.40;51.40;;;;;;4951309;28;45464;-57
2023/04/29 11:21:01;;;;;;;;;;;19.40;51.40;;;;;;4932400;28;45478;-58
2023/04/29 11:23:27;;;;;;;;;;;19.40;51.40;;;;;;4951862;28;44921;-57
2023/04/29 11:25:53;;;;;;;;;;;19.40;51.30;;;;;;4946714;28;44906;-60
2023/04/29 11:28:18;;;;;;;;;;;19.40;51.30;;;;;;4956811;28;45554;-58
2023/04/29 11:30:44;;;;;;;;;;;19.40;51.30;;;;;;4945091;28;45098;-60
2023/04/29 11:33:09;;;;;;;;;;;19.40;51.30;;;;;;4950480;28;44799;-60
2023/04/29 11:35:35;;;;;;;;;;;19.40;51.40;;;;;;4946718;28;45956;-59
2023/04/29 11:38:00;;;;;;;;;;;19.40;51.30;;;;;;4936209;28;45763;-60
2023/04/29 11:40:26;;;;;;;;;;;19.40;51.30;;;;;;4933109;28;44952;-60
2023/04/29 11:42:51;;;;;;;;;;;19.40;51.90;;;;;;4939240;28;45275;-59
2023/04/29 11:45:17;;;;;;;;;;;19.40;51.30;;;;;;4948980;28;45054;-61
2023/04/29 11:47:44;;;;;;;;;;;19.40;51.30;;;;;;4918692;28;46927;-59
2023/04/29 11:50:10;;;;;;;;;;;19.40;51.30;;;;;;4947744;28;45207;-59
2023/04/29 11:52:36;;;;;;;;;;;19.40;51.30;;;;;;4952067;28;45115;-61
2023/04/29 11:55:02;;;;;;;;;;;19.40;51.30;;;;;;4933291;28;45427;-59
2023/04/29 11:57:27;;;;;;;;;;;19.40;51.30;;;;;;4950514;28;46259;-58
2023/04/29 11:59:54;;;;;;;;;;;19.40;51.30;;;;;;4933038;28;45720;-60
2023/04/29 12:02:30;;;;;;;;;;;19.40;51.30;;;;;;4943967;28;45185;-57
2023/04/29 12:04:56;;;;;;;;;;;19.40;51.30;;;;;;4953163;28;44825;-59
2023/04/29 12:07:22;;;;;;;;;;;19.40;51.30;;;;;;4944846;28;45500;-58
2023/04/29 12:09:48;;;;;;;;;;;19.40;51.30;;;;;;4905148;28;45576;-58
2023/04/29 12:12:13;;;;;;;;;;;19.40;51.30;;;;;;4951443;28;45029;-57
2023/04/29 12:14:39;;;;;;;;;;;19.50;51.40;;;;;;4951365;28;44986;-60
2023/04/29 12:17:05;;;;;;;;;;;19.50;51.40;;;;;;4928288;28;45508;-58
2023/04/29 12:19:31;;;;;;;;;;;19.50;51.40;;;;;;4935391;28;45417;-58
2023/04/29 12:21:59;;;;;;;;;;;19.40;51.30;;;;;;4947540;28;45083;-57
2023/04/29 12:24:25;;;;;;;;;;;19.50;51.40;;;;;;4934673;28;46028;-58
2023/04/29 12:26:52;;;;;;;;;;;19.40;51.30;;;;;;4951690;28;45701;-60
2023/04/29 12:29:21;;;;;;;;;;;19.40;51.30;;;;;;4955390;28;45346;-59
2023/04/29 12:31:46;;;;;;;;;;;19.50;51.40;;;;;;4931408;28;45003;-60
2023/04/29 12:34:12;;;;;;;;;;;19.40;51.30;;;;;;4954876;28;45252;-61
2023/04/29 12:36:40;;;;;;;;;;;19.40;51.40;;;;;;4948059;28;45150;-59
2023/04/29 12:39:09;;;;;;;;;;;19.40;51.40;;;;;;4953979;28;45369;-58
2023/04/29 12:41:40;;;;;;;;;;;19.40;51.40;;;;;;4953102;28;45052;-57
2023/04/29 12:44:06;;;;;;;;;;;19.40;51.40;;;;;;4941079;28;45005;-59
2023/04/29 12:46:38;;;;;;;;;;;19.40;51.40;;;;;;4933556;28;45722;-59
2023/04/29 12:49:03;;;;;;;;;;;19.50;51.50;;;;;;4952788;28;45522;-60
2023/04/29 12:51:32;;;;;;;;;;;19.40;51.40;;;;;;4949845;28;45204;-60
2023/04/29 12:54:02;;;;;;;;;;;19.40;51.40;;;;;;4940756;28;44907;-60
2023/04/29 12:56:28;;;;;;;;;;;19.40;51.50;;;;;;4951511;28;45821;-58
2023/04/29 12:58:53;;;;;;;;;;;19.40;51.40;;;;;;4956639;28;45550;-58
2023/04/29 13:01:19;;;;;;;;;;;19.40;51.50;;;;;;4946975;28;45164;-59
2023/04/29 13:03:44;;;;;;;;;;;19.40;51.50;;;;;;4925819;28;44922;-59
2023/04/29 13:06:10;;;;;;;;;;;19.50;51.50;;;;;;4952343;28;45653;-60
2023/04/29 13:08:36;;;;;;;;;;;19.40;51.40;;;;;;4935354;28;44758;-60
2023/04/29 13:11:02;;;;;;;;;;;19.50;51.50;;;;;;4952961;28;45304;-59
2023/04/29 13:13:27;;;;;;;;;;;19.50;51.50;;;;;;4941355;28;44991;-59
2023/04/29 13:15:53;;;;;;;;;;;19.50;51.50;;;;;;4950166;28;45542;-59
2023/04/29 13:18:19;;;;;;;;;;;19.50;51.40;;;;;;4954746;28;45446;-60
2023/04/29 13:20:44;;;;;;;;;;;19.50;51.50;;;;;;4951503;28;45334;-60
2023/04/29 13:23:11;;;;;;;;;;;19.50;51.50;;;;;;4939679;28;45143;-59
2023/04/29 13:25:36;;;;;;;;;;;19.50;51.40;;;;;;4955622;28;46457;-58
2023/04/29 13:28:04;;;;;;;;;;;19.50;51.40;;;;;;4947405;28;45094;-59
2023/04/29 13:30:30;;;;;;;;;;;19.50;51.40;;;;;;4951335;28;44737;-59
2023/04/29 13:32:55;;;;;;;;;;;19.50;51.40;;;;;;4943856;28;44862;-59
2023/04/29 13:35:21;;;;;;;;;;;19.50;51.40;;;;;;4950305;28;45507;-59
2023/04/29 13:37:47;;;;;;;;;;;19.50;51.40;;;;;;4960478;28;44858;-58
2023/04/29 13:40:12;;;;;;;;;;;19.50;51.40;;;;;;4954232;28;44953;-61
2023/04/29 13:42:38;;;;;;;;;;;19.50;51.40;;;;;;4955694;28;45240;-57
2023/04/29 13:45:04;;;;;;;;;;;19.50;51.40;;;;;;4963218;28;45207;-61
2023/04/29 13:47:29;;;;;;;;;;;19.50;51.40;;;;;;4935393;28;45080;-58
2023/04/29 13:49:55;;;;;;;;;;;19.50;51.40;;;;;;4943899;28;44703;-58
2023/04/29 13:52:21;;;;;;;;;;;19.50;51.40;;;;;;4939818;28;45178;-58
2023/04/29 13:54:46;;;;;;;;;;;19.50;51.40;;;;;;4942134;28;45560;-59
2023/04/29 13:57:12;;;;;;;;;;;19.50;51.40;;;;;;4956670;28;44912;-59
2023/04/29 13:59:37;;;;;;;;;;;19.50;51.40;;;;;;4961147;28;44984;-58
2023/04/29 14:02:02;;;;;;;;;;;19.50;51.40;;;;;;4934478;28;45211;-58
2023/04/29 14:04:28;;;;;;;;;;;19.50;51.40;;;;;;4955795;28;47611;-59
2023/04/29 14:06:54;;;;;;;;;;;19.50;51.40;;;;;;4953208;28;45090;-60
2023/04/29 14:09:19;;;;;;;;;;;19.50;51.40;;;;;;4957439;28;45476;-59
2023/04/29 14:11:45;;;;;;;;;;;19.50;51.40;;;;;;4949152;28;45021;-58
2023/04/29 14:14:11;;;;;;;;;;;19.50;51.50;;;;;;4961872;28;45331;-59
2023/04/29 14:16:36;;;;;;;;;;;19.50;51.40;;;;;;4947512;28;45224;-58
2023/04/29 14:19:03;;;;;;;;;;;19.50;51.50;;;;;;4928219;28;44885;-59
2023/04/29 14:21:28;;;;;;;;;;;19.50;51.50;;;;;;4936900;28;45030;-57
2023/04/29 14:23:54;;;;;;;;;;;19.50;51.50;;;;;;4944485;28;46686;-56
2023/04/29 14:26:19;;;;;;;;;;;19.50;51.50;;;;;;4960077;28;44751;-57
2023/04/29 14:28:45;;;;;;;;;;;19.50;52.10;;;;;;4957541;28;45002;-56
2023/04/29 14:31:12;;;;;;;;;;;19.50;51.50;;;;;;4951654;28;45647;-57
2023/04/29 14:33:38;;;;;;;;;;;19.50;51.50;;;;;;4961140;28;45574;-57
2023/04/29 14:36:03;;;;;;;;;;;19.50;51.50;;;;;;4946427;28;45104;-59
2023/04/29 14:38:29;;;;;;;;;;;19.50;51.50;;;;;;4941248;28;45057;-60
2023/04/29 14:40:54;;;;;;;;;;;19.50;51.50;;;;;;4953183;28;45017;-59
2023/04/29 14:43:20;;;;;;;;;;;19.50;51.50;;;;;;4961987;28;45172;-60
2023/04/29 14:45:46;;;;;;;;;;;19.50;51.50;;;;;;4948109;28;44965;-60
2023/04/29 14:48:11;;;;;;;;;;;19.50;51.50;;;;;;4960022;28;45026;-58
2023/04/29 14:50:37;;;;;;;;;;;19.50;51.50;;;;;;4949782;28;45372;-57
2023/04/29 14:53:03;;;;;;;;;;;19.50;51.50;;;;;;4962330;28;46202;-58
2023/04/29 14:55:28;;;;;;;;;;;19.50;51.50;;;;;;4953966;28;45174;-60
2023/04/29 14:57:54;;;;;;;;;;;19.50;51.50;;;;;;4941242;28;44818;-59
2023/04/29 15:00:20;;;;;;;;;;;19.50;51.60;;;;;;4951298;28;45187;-60
2023/04/29 15:02:45;;;;;;;;;;;19.50;51.60;;;;;;4958186;28;45754;-59
2023/04/29 15:05:11;;;;;;;;;;;19.50;51.60;;;;;;4952011;28;45020;-57
2023/04/29 15:07:37;;;;;;;;;;;19.50;51.60;;;;;;4957548;28;45078;-58
2023/04/29 15:10:05;;;;;;;;;;;19.50;51.60;;;;;;4954289;28;45136;-60
2023/04/29 15:12:30;;;;;;;;;;;19.50;51.60;;;;;;4917692;28;45488;-58
2023/04/29 15:14:56;;;;;;;;;;;19.50;51.60;;;;;;4939588;28;45037;-59
2023/04/29 15:17:22;;;;;;;;;;;19.50;51.60;;;;;;4951988;28;45262;-57
2023/04/29 15:19:48;;;;;;;;;;;19.40;51.50;;;;;;4960797;28;45753;-58
2023/04/29 15:22:13;;;;;;;;;;;19.40;51.50;;;;;;4951866;28;45578;-58
2023/04/29 15:24:38;;;;;;;;;;;19.50;51.60;;;;;;4942455;28;45045;-59
2023/04/29 15:27:04;;;;;;;;;;;19.50;51.60;;;;;;4953790;28;44638;-59
2023/04/29 15:29:31;;;;;;;;;;;19.40;51.50;;;;;;4955567;28;45131;-58
2023/04/29 15:31:56;;;;;;;;;;;19.40;51.50;;;;;;4946651;28;45228;-59
2023/04/29 15:34:22;;;;;;;;;;;19.40;51.60;;;;;;4957081;28;44703;-58
2023/04/29 15:36:48;;;;;;;;;;;19.40;51.50;;;;;;4919458;28;45208;-58
2023/04/29 15:39:14;;;;;;;;;;;19.50;51.60;;;;;;4950430;28;45941;-56
2023/04/29 15:41:40;;;;;;;;;;;19.40;52.20;;;;;;4919074;28;45521;-58
2023/04/29 15:44:05;;;;;;;;;;;19.40;51.60;;;;;;4954763;28;44960;-61
2023/04/29 15:46:31;;;;;;;;;;;19.40;51.60;;;;;;4929441;28;45098;-60
2023/04/29 15:48:56;;;;;;;;;;;19.40;51.60;;;;;;4955494;28;45362;-59
2023/04/29 15:51:22;;;;;;;;;;;19.40;51.60;;;;;;4952248;28;45456;-59
2023/04/29 15:53:49;;;;;;;;;;;19.50;51.70;;;;;;4955121;28;45815;-59
2023/04/29 15:56:15;;;;;;;;;;;19.40;51.60;;;;;;4931149;28;45073;-59
2023/04/29 15:58:40;;;;;;;;;;;19.40;51.60;;;;;;4957490;28;45540;-59
2023/04/29 16:01:06;;;;;;;;;;;19.40;51.60;;;;;;4950577;28;46167;-59
2023/04/29 16:03:31;;;;;;;;;;;19.40;51.60;;;;;;4942324;28;44887;-60
2023/04/29 16:05:57;;;;;;;;;;;19.40;51.60;;;;;;4953568;28;45347;-58
2023/04/29 16:08:22;;;;;;;;;;;19.40;51.60;;;;;;4962252;28;45100;-60
2023/04/29 16:10:51;;;;;;;;;;;19.40;51.60;;;;;;4934744;28;45408;-57
2023/04/29 16:13:16;;;;;;;;;;;19.40;51.60;;;;;;4957271;28;45805;-59
2023/04/29 16:15:42;;;;;;;;;;;19.40;51.70;;;;;;4932140;28;45246;-58
2023/04/29 16:18:08;;;;;;;;;;;19.40;51.70;;;;;;4963154;28;45372;-58
2023/04/29 16:20:33;;;;;;;;;;;19.40;51.70;;;;;;4937177;28;45666;-60
2023/04/29 16:22:59;;;;;;;;;;;19.40;51.70;;;;;;4961667;28;44772;-60
2023/04/29 16:25:24;;;;;;;;;;;19.40;51.70;;;;;;4936026;28;45208;-60
2023/04/29 16:27:50;;;;;;;;;;;19.40;51.70;;;;;;4957465;28;44925;-58
2023/04/29 16:30:15;;;;;;;;;;;19.40;51.70;;;;;;4936515;28;46468;-57
2023/04/29 16:32:41;;;;;;;;;;;19.40;51.70;;;;;;4948431;28;45031;-59
2023/04/29 16:35:08;;;;;;;;;;;19.40;51.70;;;;;;4957155;28;45026;-60
2023/04/29 16:37:34;;;;;;;;;;;19.40;51.70;;;;;;4956550;28;44975;-59
2023/04/29 16:40:00;;;;;;;;;;;19.40;51.70;;;;;;4939170;28;46268;-59
2023/04/29 16:42:25;;;;;;;;;;;19.40;51.70;;;;;;4956741;28;45014;-60
2023/04/29 16:44:51;;;;;;;;;;;19.40;51.70;;;;;;4962699;28;45264;-58
2023/04/29 16:47:19;;;;;;;;;;;19.40;51.70;;;;;;4931317;28;45239;-60
2023/04/29 16:49:44;;;;;;;;;;;19.40;51.70;;;;;;4938413;28;45243;-57
2023/04/29 16:52:11;;;;;;;;;;;19.40;51.80;;;;;;4954006;28;44703;-59
2023/04/29 16:54:37;;;;;;;;;;;19.40;51.80;;;;;;4962993;28;45101;-59
2023/04/29 16:57:02;;;;;;;;;;;19.40;51.80;;;;;;4932976;28;45502;-58
2023/04/29 16:59:28;;;;;;;;;;;19.30;51.80;;;;;;4940445;28;45887;-61
2023/04/29 17:01:54;;;;;;;;;;;19.30;51.80;;;;;;4947508;28;45456;-59
2023/04/29 17:04:19;;;;;;;;;;;19.30;51.80;;;;;;4936720;28;45075;-58
2023/04/29 17:06:45;;;;;;;;;;;19.30;51.80;;;;;;4938083;28;45623;-60
2023/04/29 17:09:10;;;;;;;;;;;19.30;51.80;;;;;;4956211;28;45503;-57
2023/04/29 17:11:36;;;;;;;;;;;19.30;51.90;;;;;;4934235;28;45162;-56